Time;durP1;ratioP1;P1;durP2;ratioP2;P2;SDS_P1;SDS_P2;PMS_P1;PMS_P2;Temp;Humidity;BMP_temperature;BMP_pressure;BME280_temperature;BME280_humidity;BME280_pressure;Samples;Min_cycle;Max_cycle;Signal;HPM_P1;HPM_P2
2022/08/25 00:00:12;;;;;;;5.22;2.15;;;25.20;61.00;;;;;;5047818;28;20107;-60
2022/08/25 00:02:40;;;;;;;4.72;2.13;;;25.20;61.00;;;;;;5048203;28;20053;-60
2022/08/25 00:05:24;;;;;;;1.80;1.70;;;25.20;61.00;;;;;;5047629;28;20045;-60
2022/08/25 00:07:52;;;;;;;1.73;1.63;;;25.20;61.10;;;;;;5047914;28;20470;-59
2022/08/25 00:10:20;;;;;;;2.00;1.80;;;25.20;61.00;;;;;;5047687;28;20118;-60
2022/08/25 00:12:47;;;;;;;1.92;1.83;;;25.20;61.00;;;;;;5048379;28;20134;-61
2022/08/25 00:15:15;;;;;;;2.53;2.03;;;25.10;61.00;;;;;;5048186;28;20099;-59
2022/08/25 00:17:42;;;;;;;2.10;2.00;;;25.20;61.00;;;;;;5048345;28;20476;-60
2022/08/25 00:20:09;;;;;;;1.90;1.80;;;25.20;61.00;;;;;;5052057;28;20452;-60
2022/08/25 00:22:37;;;;;;;2.00;1.90;;;25.10;61.00;;;;;;5047706;28;20193;-60
2022/08/25 00:25:04;;;;;;;2.58;1.80;;;25.10;61.00;;;;;;5051847;28;20106;-60
2022/08/25 00:27:31;;;;;;;2.05;1.90;;;25.10;61.00;;;;;;5051948;28;20110;-60
2022/08/25 00:29:59;;;;;;;2.17;1.98;;;25.10;61.00;;;;;;5051869;28;20144;-59
2022/08/25 00:32:26;;;;;;;1.90;1.80;;;25.10;61.00;;;;;;5051468;28;20486;-60
2022/08/25 00:34:53;;;;;;;1.80;1.70;;;25.10;61.00;;;;;;5052179;28;20048;-60
2022/08/25 00:37:21;;;;;;;2.05;1.88;;;25.10;61.00;;;;;;5051620;28;20114;-61
2022/08/25 00:39:48;;;;;;;2.03;1.92;;;25.10;61.00;;;;;;5051601;28;20102;-60
2022/08/25 00:42:18;;;;;;;1.67;1.58;;;25.10;61.00;;;;;;5049914;28;20132;-60
2022/08/25 00:44:46;;;;;;;2.03;1.92;;;25.10;61.00;;;;;;5051470;28;20049;-60
2022/08/25 00:47:13;;;;;;;3.92;2.00;;;25.10;61.00;;;;;;5051346;28;20049;-59
2022/08/25 00:49:57;;;;;;;2.20;2.00;;;25.10;61.00;;;;;;5052022;28;20087;-59
2022/08/25 00:52:30;;;;;;;2.00;1.90;;;25.10;61.00;;;;;;5051339;28;20517;-60
2022/08/25 00:55:05;;;;;;;4.13;2.22;;;25.10;61.00;;;;;;5046684;28;20482;-60
2022/08/25 00:57:42;;;;;;;2.70;2.50;;;25.10;61.00;;;;;;5050328;28;20052;-60
2022/08/25 01:00:18;;;;;;;2.25;2.05;;;25.10;61.10;;;;;;5051271;28;20102;-60
2022/08/25 01:02:45;;;;;;;3.08;1.95;;;25.10;61.20;;;;;;5051588;28;20485;-60
2022/08/25 01:05:13;;;;;;;2.20;2.00;;;25.10;61.30;;;;;;5051241;28;20053;-60
2022/08/25 01:07:42;;;;;;;3.92;2.00;;;25.10;61.40;;;;;;5051081;28;20057;-60
2022/08/25 01:10:12;;;;;;;2.30;2.10;;;25.10;61.40;;;;;;5051210;28;20044;-60
2022/08/25 01:12:39;;;;;;;5.82;1.90;;;25.10;61.50;;;;;;5049784;28;20045;-60
2022/08/25 01:15:09;;;;;;;1.83;1.73;;;25.10;61.60;;;;;;5050918;28;20594;-59
2022/08/25 01:17:47;;;;;;;2.55;1.85;;;25.10;61.60;;;;;;5051031;28;20179;-60
2022/08/25 01:20:18;;;;;;;2.17;1.95;;;25.10;61.60;;;;;;5050776;28;20114;-60
2022/08/25 01:22:46;;;;;;;4.00;2.22;;;25.10;61.60;;;;;;5050893;28;20045;-60
2022/08/25 01:25:51;;;;;;;2.25;2.00;;;25.10;61.60;;;;;;5045624;28;20092;-60
2022/08/25 01:28:20;;;;;;;2.58;2.38;;;25.10;61.60;;;;;;5049650;28;20079;-60
2022/08/25 01:30:48;;;;;;;2.70;1.83;;;25.10;61.60;;;;;;5049992;28;20049;-60
2022/08/25 01:33:16;;;;;;;2.60;2.00;;;25.10;61.60;;;;;;5049223;28;20052;-60
2022/08/25 01:35:44;;;;;;;2.10;2.00;;;25.10;61.60;;;;;;5049862;28;20448;-60
2022/08/25 01:38:14;;;;;;;2.42;2.10;;;25.10;61.60;;;;;;5050661;28;20469;-60
2022/08/25 01:40:41;;;;;;;3.95;2.28;;;25.10;61.50;;;;;;5050370;28;20088;-60
2022/08/25 01:43:26;;;;;;;2.33;2.13;;;25.10;61.50;;;;;;5050646;28;20099;-60
2022/08/25 01:45:53;;;;;;;2.60;2.40;;;25.10;61.50;;;;;;5050473;28;20053;-60
2022/08/25 01:48:20;;;;;;;2.53;2.30;;;25.10;61.50;;;;;;5050537;28;20053;-60
2022/08/25 01:50:47;;;;;;;2.15;1.95;;;25.10;61.50;;;;;;5050082;28;20087;-60
2022/08/25 01:53:29;;;;;;;3.42;2.90;;;25.10;61.50;;;;;;5050518;28;20049;-60
2022/08/25 01:56:07;;;;;;;2.15;2.00;;;25.10;61.50;;;;;;5044151;28;20041;-60
2022/08/25 01:58:39;;;;;;;3.47;2.85;;;25.10;61.50;;;;;;5050594;28;20060;-60
2022/08/25 02:01:10;;;;;;;2.75;2.20;;;25.10;61.50;;;;;;5050315;28;20402;-60
2022/08/25 02:03:39;;;;;;;2.17;2.05;;;25.10;61.60;;;;;;5032884;28;20543;-60
2022/08/25 02:06:11;;;;;;;5.35;2.90;;;25.10;61.50;;;;;;5049321;28;20049;-60
2022/08/25 02:08:39;;;;;;;2.55;2.25;;;25.10;61.60;;;;;;5048904;28;20129;-60
2022/08/25 02:11:10;;;;;;;4.13;2.70;;;25.10;61.60;;;;;;5049697;28;20067;-60
2022/08/25 02:13:39;;;;;;;3.40;2.38;;;25.10;61.60;;;;;;5050113;28;20045;-60
2022/08/25 02:16:08;;;;;;;3.25;2.70;;;25.10;61.60;;;;;;5048612;28;20490;-60
2022/08/25 02:18:35;;;;;;;2.35;2.10;;;25.00;61.50;;;;;;5049911;28;20049;-59
2022/08/25 02:21:02;;;;;;;2.67;2.40;;;25.10;61.60;;;;;;5049555;28;20139;-60
2022/08/25 02:23:29;;;;;;;2.28;2.08;;;25.10;61.50;;;;;;5049862;28;20445;-60
2022/08/25 02:25:57;;;;;;;2.95;2.33;;;25.10;61.60;;;;;;5048616;28;20501;-60
2022/08/25 02:28:25;;;;;;;4.07;2.50;;;25.10;61.50;;;;;;5044751;28;20114;-60
2022/08/25 02:30:52;;;;;;;3.20;2.90;;;25.10;61.50;;;;;;5049555;28;20647;-60
2022/08/25 02:33:28;;;;;;;2.20;2.00;;;25.10;61.50;;;;;;5049041;28;20128;-60
2022/08/25 02:36:00;;;;;;;2.17;1.98;;;25.10;61.50;;;;;;5049521;28;20080;-60
2022/08/25 02:38:28;;;;;;;2.42;2.22;;;25.10;61.40;;;;;;5049198;28;20049;-59
2022/08/25 02:40:57;;;;;;;2.42;2.25;;;25.10;61.40;;;;;;5048946;28;20060;-59
2022/08/25 02:43:26;;;;;;;3.22;2.20;;;25.10;61.40;;;;;;5049494;28;20041;-60
2022/08/25 02:45:55;;;;;;;2.50;2.30;;;25.10;61.40;;;;;;5048216;28;20052;-60
2022/08/25 02:48:23;;;;;;;2.30;2.10;;;25.10;61.30;;;;;;5049262;28;20053;-60
2022/08/25 02:50:51;;;;;;;2.35;2.15;;;25.10;61.30;;;;;;5048953;28;20087;-60
2022/08/25 02:53:20;;;;;;;3.13;2.70;;;25.10;61.20;;;;;;5049135;28;20407;-60
2022/08/25 02:55:47;;;;;;;2.85;2.65;;;25.10;61.20;;;;;;5048820;28;20053;-60
2022/08/25 02:58:14;;;;;;;3.50;3.17;;;25.10;61.20;;;;;;5048035;28;20447;-60
2022/08/25 03:00:41;;;;;;;3.83;2.17;;;25.10;61.20;;;;;;5045903;28;20049;-60
2022/08/25 03:03:09;;;;;;;2.40;2.30;;;25.10;61.10;;;;;;5048849;28;20095;-60
2022/08/25 03:05:36;;;;;;;2.63;2.40;;;25.10;61.10;;;;;;5048833;28;20106;-60
2022/08/25 03:08:05;;;;;;;2.88;2.47;;;25.00;61.10;;;;;;5048676;28;20075;-60
2022/08/25 03:10:34;;;;;;;3.37;2.30;;;25.10;61.10;;;;;;5048963;28;20821;-60
2022/08/25 03:13:01;;;;;;;5.20;2.40;;;25.10;61.20;;;;;;5047636;28;20044;-60
2022/08/25 03:15:28;;;;;;;2.50;2.30;;;25.10;61.10;;;;;;5048520;28;20052;-59
2022/08/25 03:17:57;;;;;;;2.45;2.22;;;25.00;61.10;;;;;;5047275;28;20072;-60
2022/08/25 03:20:26;;;;;;;2.73;2.53;;;25.00;61.10;;;;;;5048866;28;20049;-60
2022/08/25 03:22:53;;;;;;;2.47;2.28;;;25.10;61.10;;;;;;5048410;28;20313;-60
2022/08/25 03:28:09;;;;;;;3.53;2.20;;;25.10;61.10;;;;;;5047992;28;20084;-60
2022/08/25 03:30:40;;;;;;;2.67;2.42;;;25.00;61.00;;;;;;5041667;28;20055;-60
2022/08/25 03:33:08;;;;;;;3.08;2.67;;;25.10;61.10;;;;;;5029334;28;20077;-59
2022/08/25 03:35:35;;;;;;;2.40;2.20;;;25.10;61.10;;;;;;5032916;28;20133;-59
2022/08/25 03:38:04;;;;;;;3.95;1.95;;;25.00;61.00;;;;;;5040973;28;20045;-60
2022/08/25 03:40:32;;;;;;;2.37;2.17;;;25.10;61.10;;;;;;5033449;28;20364;-59
2022/08/25 03:42:59;;;;;;;3.78;2.10;;;25.10;61.00;;;;;;5046204;28;20336;-59
2022/08/25 03:45:27;;;;;;;2.50;2.30;;;25.10;61.00;;;;;;5047483;28;20045;-60
2022/08/25 03:47:54;;;;;;;2.03;1.92;;;25.00;60.90;;;;;;5046658;28;20051;-60
2022/08/25 03:50:22;;;;;;;2.53;2.33;;;25.10;61.00;;;;;;5047737;28;20080;-60
2022/08/25 03:52:53;;;;;;;2.28;2.08;;;25.10;60.90;;;;;;5046853;28;20041;-60
2022/08/25 03:55:22;;;;;;;3.13;2.70;;;25.10;60.80;;;;;;5048307;28;20099;-60
2022/08/25 03:57:51;;;;;;;3.88;2.75;;;25.10;61.30;;;;;;5048231;28;20045;-60
2022/08/25 04:00:21;;;;;;;2.70;2.50;;;25.10;60.70;;;;;;5047918;28;20559;-60
2022/08/25 04:02:48;;;;;;;7.53;3.13;;;25.10;60.70;;;;;;5039133;28;20371;-60
2022/08/25 04:05:15;;;;;;;5.45;2.97;;;25.10;60.70;;;;;;5042153;28;20106;-60
2022/08/25 04:07:42;;;;;;;5.63;2.92;;;25.10;60.70;;;;;;5043506;28;20212;-60
2022/08/25 04:10:11;;;;;;;6.13;3.53;;;25.10;60.70;;;;;;5047043;28;20041;-59
2022/08/25 04:12:38;;;;;;;7.05;3.47;;;25.10;60.80;;;;;;5047276;28;20485;-59
2022/08/25 04:15:07;;;;;;;10.05;3.63;;;25.00;60.80;;;;;;5047904;28;20437;-60
2022/08/25 04:17:38;;;;;;;8.15;4.40;;;25.10;60.80;;;;;;5047254;28;20080;-59
2022/08/25 04:20:07;;;;;;;8.70;3.70;;;25.10;60.90;;;;;;5048155;28;20387;-60
2022/08/25 04:22:36;;;;;;;5.57;4.23;;;25.10;60.90;;;;;;5047520;28;20049;-58
2022/08/25 04:25:05;;;;;;;4.88;4.00;;;25.10;61.00;;;;;;5065952;28;20721;-60
2022/08/25 04:27:32;;;;;;;5.13;3.83;;;25.10;61.00;;;;;;5067891;28;20056;-59
2022/08/25 04:29:59;;;;;;;5.45;4.18;;;25.10;61.00;;;;;;5067812;28;20044;-59
2022/08/25 04:32:27;;;;;;;6.13;4.35;;;25.10;61.10;;;;;;5067111;28;20110;-59
2022/08/25 04:34:54;;;;;;;4.97;4.47;;;25.10;61.30;;;;;;5062458;28;20558;-59
2022/08/25 04:37:21;;;;;;;5.88;3.83;;;25.10;61.50;;;;;;5067707;28;20499;-59
2022/08/25 04:39:48;;;;;;;7.00;4.50;;;25.10;61.60;;;;;;5067485;28;20594;-59
2022/08/25 04:42:15;;;;;;;5.22;4.30;;;25.10;61.60;;;;;;5055694;28;20045;-59
2022/08/25 04:44:43;;;;;;;6.82;4.53;;;25.10;61.60;;;;;;5044592;28;20092;-59
2022/08/25 04:47:11;;;;;;;7.65;4.18;;;25.10;61.60;;;;;;5045526;28;20089;-59
2022/08/25 04:49:38;;;;;;;5.15;4.15;;;25.10;61.50;;;;;;5047288;28;20076;-60
2022/08/25 04:52:05;;;;;;;5.00;4.18;;;25.10;61.50;;;;;;5036485;28;20037;-60
2022/08/25 04:54:40;;;;;;;5.95;4.63;;;25.10;61.40;;;;;;5030070;28;20061;-59
2022/08/25 04:57:08;;;;;;;5.18;4.18;;;25.20;61.50;;;;;;5042060;28;20522;-59
2022/08/25 04:59:35;;;;;;;6.68;4.30;;;25.20;61.50;;;;;;5047094;28;20045;-59
2022/08/25 05:02:04;;;;;;;8.82;4.95;;;25.20;61.40;;;;;;5047510;28;20099;-60
2022/08/25 05:04:34;;;;;;;6.35;3.78;;;25.20;61.40;;;;;;5049063;28;20072;-59
2022/08/25 05:07:02;;;;;;;6.10;4.30;;;25.20;61.30;;;;;;5045031;28;20073;-59
2022/08/25 05:09:30;;;;;;;5.28;4.20;;;25.20;61.30;;;;;;5051656;28;20045;-59
2022/08/25 05:12:00;;;;;;;4.70;4.20;;;25.20;61.40;;;;;;5050780;28;20052;-59
2022/08/25 05:14:27;;;;;;;4.40;3.60;;;25.10;61.60;;;;;;5050727;28;20091;-59
2022/08/25 05:16:55;;;;;;;8.40;4.70;;;25.10;61.70;;;;;;5050328;28;20570;-59
2022/08/25 05:19:23;;;;;;;5.07;4.55;;;24.90;60.70;;;;;;5050718;28;20041;-59
2022/08/25 05:21:51;;;;;;;5.35;4.13;;;24.70;59.60;;;;;;5049317;28;20057;-58
2022/08/25 05:24:19;;;;;;;5.63;3.95;;;24.50;58.50;;;;;;5047127;28;20045;-58
2022/08/25 05:26:48;;;;;;;10.95;4.32;;;24.30;57.90;;;;;;5049806;28;20473;-58
2022/08/25 05:29:15;;;;;;;5.57;4.18;;;24.00;57.20;;;;;;5048669;28;20049;-58
2022/08/25 05:31:44;;;;;;;6.43;3.85;;;23.70;56.70;;;;;;5041576;28;20045;-57
2022/08/25 05:34:17;;;;;;;4.85;4.10;;;23.40;55.70;;;;;;5047096;28;20055;-58
2022/08/25 05:36:45;;;;;;;5.43;4.07;;;23.00;55.30;;;;;;5044618;28;20144;-55
2022/08/25 05:39:14;;;;;;;6.78;4.47;;;22.70;56.20;;;;;;5034719;28;20050;-61
2022/08/25 05:41:41;;;;;;;6.50;5.43;;;22.30;56.40;;;;;;5042193;28;20140;-59
2022/08/25 05:44:11;;;;;;;5.68;5.07;;;22.00;56.30;;;;;;5034527;28;20099;-60
2022/08/25 05:46:38;;;;;;;8.85;5.70;;;21.70;56.40;;;;;;5040248;28;20148;-60
2022/08/25 05:49:06;;;;;;;6.20;4.80;;;21.50;56.80;;;;;;5041839;28;20037;-59
2022/08/25 05:51:33;;;;;;;7.05;5.05;;;21.20;57.60;;;;;;5044961;28;20057;-60
2022/08/25 05:54:00;;;;;;;6.10;5.22;;;21.00;58.60;;;;;;5042477;28;20126;-60
2022/08/25 05:56:27;;;;;;;7.05;4.88;;;20.80;59.00;;;;;;5048352;28;20045;-58
2022/08/25 05:58:58;;;;;;;6.35;4.93;;;20.70;59.00;;;;;;5051405;28;20103;-58
2022/08/25 06:04:16;;;;;;;6.20;4.60;;;20.30;58.30;;;;;;5034705;28;20824;-59
2022/08/25 06:06:44;;;;;;;7.32;4.88;;;20.20;59.50;;;;;;5068485;28;20053;-59
2022/08/25 06:09:12;;;;;;;6.70;5.25;;;20.10;60.10;;;;;;5036584;28;20048;-59
2022/08/25 06:11:40;;;;;;;6.35;5.05;;;20.00;59.50;;;;;;5032179;28;20418;-60
2022/08/25 06:14:08;;;;;;;6.07;4.82;;;19.90;59.50;;;;;;5039409;28;20160;-59
2022/08/25 06:16:37;;;;;;;6.28;4.55;;;19.90;61.70;;;;;;5025169;28;20052;-59
2022/08/25 06:19:09;;;;;;;7.13;5.43;;;19.80;60.70;;;;;;5025485;28;20053;-59
2022/08/25 06:21:40;;;;;;;5.68;5.05;;;19.70;59.40;;;;;;5022727;28;20057;-59
2022/08/25 06:24:09;;;;;;;6.07;4.82;;;19.60;60.20;;;;;;5020604;28;20073;-59
2022/08/25 06:26:42;;;;;;;6.63;4.97;;;19.60;60.80;;;;;;5028929;28;20881;-59
2022/08/25 06:29:12;;;;;;;6.35;5.25;;;19.50;60.60;;;;;;5030868;28;20104;-59
2022/08/25 06:31:41;;;;;;;6.78;5.15;;;19.40;59.60;;;;;;5031646;28;20579;-60
2022/08/25 06:34:09;;;;;;;6.72;5.13;;;19.30;60.00;;;;;;5029424;28;20103;-59
2022/08/25 06:36:37;;;;;;;6.57;5.22;;;19.10;59.40;;;;;;5025746;28;20053;-59
2022/08/25 06:39:04;;;;;;;6.80;4.93;;;19.00;59.20;;;;;;5031480;28;20059;-60
2022/08/25 06:41:31;;;;;;;8.75;6.03;;;18.80;61.30;;;;;;5028847;28;20045;-60
2022/08/25 06:44:03;;;;;;;8.63;5.60;;;18.80;62.20;;;;;;5032277;28;20305;-60
2022/08/25 06:46:32;;;;;;;7.72;5.75;;;18.70;61.40;;;;;;5042703;28;20048;-60
2022/08/25 06:49:04;;;;;;;10.57;6.00;;;18.60;60.70;;;;;;5044341;28;20435;-61
2022/08/25 06:51:34;;;;;;;8.18;6.32;;;18.60;62.10;;;;;;5046780;28;20049;-60
2022/08/25 06:54:02;;;;;;;10.37;5.90;;;18.50;62.90;;;;;;5034125;28;20556;-60
2022/08/25 06:56:30;;;;;;;10.88;7.22;;;18.40;63.40;;;;;;5040880;28;20486;-60
2022/08/25 06:58:57;;;;;;;8.32;5.60;;;18.40;66.50;;;;;;5043167;28;20041;-59
2022/08/25 07:01:25;;;;;;;10.77;6.25;;;18.40;62.90;;;;;;5042170;28;20076;-60
2022/08/25 07:03:59;;;;;;;13.60;6.45;;;18.40;62.30;;;;;;5044624;28;20486;-59
2022/08/25 07:06:30;;;;;;;7.13;5.57;;;18.40;63.70;;;;;;5039904;28;20408;-60
2022/08/25 07:08:58;;;;;;;7.00;5.60;;;18.40;63.70;;;;;;5035402;28;20041;-60
2022/08/25 07:11:27;;;;;;;10.20;7.70;;;18.40;63.30;;;;;;5034768;28;20060;-60
2022/08/25 07:13:56;;;;;;;11.50;8.50;;;18.50;65.60;;;;;;5039135;28;20104;-60
2022/08/25 07:16:24;;;;;;;9.05;7.45;;;18.40;64.20;;;;;;5045953;28;20037;-59
2022/08/25 07:18:56;;;;;;;12.68;9.10;;;18.40;62.80;;;;;;5044531;28;20052;-60
2022/08/25 07:21:28;;;;;;;11.98;8.80;;;18.40;65.50;;;;;;5047414;28;20063;-60
2022/08/25 07:24:02;;;;;;;11.02;7.50;;;18.30;65.50;;;;;;5036405;28;20139;-60
2022/08/25 07:26:33;;;;;;;11.25;8.27;;;18.40;64.40;;;;;;5047641;28;20045;-60
2022/08/25 07:29:10;;;;;;;14.35;9.05;;;18.40;63.90;;;;;;5035990;28;20044;-60
2022/08/25 07:31:38;;;;;;;12.05;8.30;;;18.30;64.10;;;;;;5034388;28;20046;-60
2022/08/25 07:36:55;;;;;;;10.10;8.13;;;18.30;66.20;;;;;;5039448;28;20049;-60
2022/08/25 07:39:25;;;;;;;13.60;10.05;;;18.20;65.10;;;;;;5035939;28;20049;-58
2022/08/25 07:41:54;;;;;;;9.75;6.95;;;18.30;68.70;;;;;;5042466;28;20052;-58
2022/08/25 07:44:23;;;;;;;19.13;8.55;;;18.30;63.50;;;;;;5022026;28;20049;-59
2022/08/25 07:46:54;;;;;;;12.50;7.78;;;18.30;64.40;;;;;;5030961;28;20073;-58
2022/08/25 07:49:23;;;;;;;10.68;7.75;;;18.30;65.00;;;;;;5035723;28;20122;-58
2022/08/25 07:51:51;;;;;;;10.63;8.40;;;18.30;64.60;;;;;;5033269;28;20491;-58
2022/08/25 07:54:32;;;;;;;12.75;8.50;;;18.30;63.30;;;;;;5037707;28;20049;-59
2022/08/25 07:57:03;;;;;;;10.27;7.70;;;18.30;64.50;;;;;;5040729;28;20513;-59
2022/08/25 07:59:31;;;;;;;8.88;6.78;;;18.30;63.50;;;;;;5036438;28;20497;-59
2022/08/25 08:02:11;;;;;;;9.95;7.28;;;18.30;63.70;;;;;;5039180;28;20052;-59
2022/08/25 08:04:48;;;;;;;14.27;8.23;;;18.30;63.20;;;;;;5039006;28;20076;-59
2022/08/25 08:07:18;;;;;;;8.98;6.97;;;18.30;64.20;;;;;;5044929;28;20049;-58
2022/08/25 08:09:47;;;;;;;9.40;6.47;;;18.30;62.90;;;;;;5039535;28;20060;-59
2022/08/25 08:12:27;;;;;;;11.90;7.47;;;18.40;63.00;;;;;;5042778;28;20060;-59
2022/08/25 08:14:54;;;;;;;10.13;7.07;;;18.30;62.10;;;;;;5041793;28;20090;-59
2022/08/25 08:17:21;;;;;;;9.13;7.10;;;18.30;63.70;;;;;;5040389;28;20041;-59
2022/08/25 08:19:50;;;;;;;13.32;7.82;;;18.30;63.30;;;;;;5040643;28;20048;-59
2022/08/25 08:22:18;;;;;;;15.63;9.70;;;18.30;64.40;;;;;;5032238;28;20054;-60
2022/08/25 08:24:45;;;;;;;11.90;8.65;;;18.30;64.60;;;;;;5040842;28;20042;-60
2022/08/25 08:27:23;;;;;;;13.57;9.20;;;18.40;63.40;;;;;;5044599;28;20052;-59
2022/08/25 08:29:52;;;;;;;15.40;10.30;;;18.30;63.60;;;;;;5048474;28;20048;-59
2022/08/25 08:32:20;;;;;;;11.77;8.52;;;18.40;66.30;;;;;;5032347;28;20053;-59
2022/08/25 08:34:49;;;;;;;12.57;9.00;;;18.40;64.10;;;;;;5037919;28;20111;-60
2022/08/25 08:37:18;;;;;;;14.38;9.48;;;18.40;64.20;;;;;;5037986;28;20049;-62
2022/08/25 08:39:50;;;;;;;12.27;8.98;;;18.50;65.60;;;;;;5042163;28;20103;-60
2022/08/25 08:42:45;;;;;;;12.05;8.60;;;18.50;64.40;;;;;;5038463;28;20119;-62
2022/08/25 08:45:31;;;;;;;9.57;7.72;;;18.50;63.90;;;;;;5041004;28;20076;-61
2022/08/25 08:48:37;;;;;;;11.70;8.23;;;18.50;63.10;;;;;;5037718;28;20136;-61
2022/08/25 08:51:20;;;;;;;15.88;8.52;;;18.60;63.80;;;;;;5045004;28;20379;-63
2022/08/25 08:54:08;;;;;;;12.68;7.90;;;18.60;63.50;;;;;;5040598;28;20506;-64
2022/08/25 08:56:44;;;;;;;12.13;8.23;;;18.60;63.90;;;;;;5067276;28;20072;-65
2022/08/25 08:59:25;;;;;;;12.02;8.27;;;18.70;64.90;;;;;;5041597;28;20056;-65
2022/08/25 09:02:01;;;;;;;9.55;7.40;;;18.70;64.00;;;;;;5046732;28;20041;-65
2022/08/25 09:04:44;;;;;;;9.82;6.57;;;18.70;64.20;;;;;;5045200;28;20072;-67
2022/08/25 09:07:17;;;;;;;13.38;8.13;;;18.70;63.40;;;;;;5048906;28;20098;-66
2022/08/25 09:09:47;;;;;;;12.23;8.13;;;18.70;64.30;;;;;;5050638;28;20106;-66
2022/08/25 09:12:40;;;;;;;14.13;7.38;;;18.70;64.10;;;;;;5043898;28;20077;-64
2022/08/25 09:18:49;;;;;;;11.35;7.20;;;18.70;64.20;;;;;;5045301;28;20053;-66
2022/08/25 09:21:36;;;;;;;11.32;8.65;;;18.90;64.00;;;;;;5041701;28;20044;-64
2022/08/25 09:24:38;;;;;;;9.07;7.28;;;18.90;63.40;;;;;;5041873;28;20053;-65
2022/08/25 09:27:32;;;;;;;9.70;7.43;;;18.90;63.80;;;;;;5044505;28;20228;-63
2022/08/25 09:30:13;;;;;;;16.17;8.52;;;19.00;63.30;;;;;;5044841;28;20057;-64
2022/08/25 09:32:46;;;;;;;9.93;7.38;;;19.00;64.50;;;;;;5037512;28;20045;-63
2022/08/25 09:35:25;;;;;;;10.93;7.75;;;19.00;64.30;;;;;;5044460;28;20044;-64
2022/08/25 09:38:08;;;;;;;11.07;7.68;;;19.10;64.10;;;;;;5061605;28;20071;-64
2022/08/25 09:40:39;;;;;;;9.48;6.95;;;19.10;64.20;;;;;;5036982;28;20045;-64
2022/08/25 09:43:30;;;;;;;11.43;7.57;;;19.10;64.80;;;;;;5036987;28;20049;-63
2022/08/25 09:46:07;;;;;;;9.38;7.75;;;19.20;64.60;;;;;;5032122;28;20037;-63
2022/08/25 09:48:47;;;;;;;8.50;7.60;;;19.30;65.00;;;;;;5043881;28;20075;-63
2022/08/25 09:51:38;;;;;;;11.73;7.90;;;19.30;63.80;;;;;;5036220;28;20051;-65
2022/08/25 09:54:20;;;;;;;9.93;8.05;;;19.30;63.90;;;;;;5041276;28;20180;-65
2022/08/25 09:57:07;;;;;;;10.60;7.65;;;19.30;63.70;;;;;;5050003;28;20072;-64
2022/08/25 09:59:36;;;;;;;12.93;7.72;;;19.40;64.40;;;;;;5045324;28;20049;-64
2022/08/25 10:02:27;;;;;;;12.48;8.48;;;19.40;64.30;;;;;;5059966;28;20060;-64
2022/08/25 10:04:55;;;;;;;9.98;8.10;;;19.40;63.60;;;;;;5033052;28;20068;-64
2022/08/25 10:07:31;;;;;;;11.50;8.30;;;19.40;63.60;;;;;;5047436;28;20397;-64
2022/08/25 10:10:01;;;;;;;13.07;8.25;;;19.40;64.30;;;;;;5046336;28;20078;-63
2022/08/25 10:12:38;;;;;;;9.35;7.38;;;19.40;64.50;;;;;;5040068;28;20045;-63
2022/08/25 10:15:30;;;;;;;10.90;8.05;;;19.50;64.10;;;;;;5046545;28;20048;-64
2022/08/25 10:18:25;;;;;;;10.82;7.72;;;19.50;64.00;;;;;;5039006;28;20048;-64
2022/08/25 10:21:12;;;;;;;10.65;7.22;;;19.60;64.00;;;;;;5046089;28;20386;-64
2022/08/25 10:23:54;;;;;;;9.65;8.20;;;19.60;64.20;;;;;;5041201;28;20044;-64
2022/08/25 10:26:54;;;;;;;12.52;8.07;;;19.60;63.40;;;;;;5043409;28;20068;-64
2022/08/25 10:29:52;;;;;;;8.60;6.78;;;19.60;63.70;;;;;;5039661;28;20559;-63
2022/08/25 10:32:47;;;;;;;9.23;7.28;;;19.60;64.50;;;;;;5034826;28;20099;-64
2022/08/25 10:35:19;;;;;;;8.70;7.50;;;19.60;64.20;;;;;;5051266;28;20083;-64
2022/08/25 10:38:16;;;;;;;8.57;6.82;;;19.60;64.20;;;;;;5038422;28;20098;-64
2022/08/25 10:41:02;;;;;;;10.07;7.53;;;19.70;63.00;;;;;;5046854;28;20075;-65
2022/08/25 10:45:41;;;;;;;10.48;7.55;;;19.70;63.50;;;;;;5044089;28;20950;-63
2022/08/25 10:47:16;;;;;;;8.75;6.78;;;19.70;63.30;;;;;;5039858;28;20054;-64
2022/08/25 10:49:53;;;;;;;8.37;6.70;;;19.70;64.10;;;;;;5048610;28;20102;-63
2022/08/25 10:52:37;;;;;;;8.75;6.72;;;19.80;64.20;;;;;;5044205;28;20298;-63
2022/08/25 10:55:16;;;;;;;12.00;7.30;;;19.80;62.80;;;;;;5035264;28;20059;-62
2022/08/25 10:58:02;;;;;;;7.57;6.28;;;19.80;64.20;;;;;;5045895;28;20057;-62
2022/08/25 11:00:37;;;;;;;9.50;6.93;;;19.80;63.40;;;;;;5045569;28;20564;-64
2022/08/25 11:03:40;;;;;;;9.20;7.10;;;19.90;63.70;;;;;;5045649;28;20045;-63
2022/08/25 11:06:18;;;;;;;9.00;7.00;;;19.90;63.50;;;;;;5037386;28;20059;-64
2022/08/25 11:08:58;;;;;;;8.88;7.55;;;19.90;63.10;;;;;;5042907;28;20102;-64
2022/08/25 11:11:33;;;;;;;10.13;6.78;;;19.90;63.00;;;;;;5040335;28;20087;-64
2022/08/25 11:14:16;;;;;;;7.70;6.63;;;19.90;62.90;;;;;;5033943;28;20053;-64
2022/08/25 11:17:11;;;;;;;8.50;6.85;;;19.90;63.20;;;;;;5035484;28;20049;-64
2022/08/25 11:19:44;;;;;;;9.50;6.70;;;19.90;62.70;;;;;;5033628;28;20051;-64
2022/08/25 11:22:34;;;;;;;8.25;6.85;;;19.90;62.80;;;;;;5036969;28;20044;-64
2022/08/25 11:25:28;;;;;;;8.40;6.87;;;19.80;63.00;;;;;;5034666;28;20049;-64
2022/08/25 11:28:13;;;;;;;9.57;7.78;;;19.80;62.40;;;;;;5033400;28;20453;-64
2022/08/25 11:30:41;;;;;;;13.82;7.22;;;19.80;63.30;;;;;;5039110;28;20098;-64
2022/08/25 11:33:13;;;;;;;9.85;7.13;;;19.80;63.60;;;;;;5018725;28;20045;-63
2022/08/25 11:35:52;;;;;;;8.05;6.78;;;19.80;63.70;;;;;;5038063;28;20095;-63
2022/08/25 11:38:51;;;;;;;9.60;7.20;;;19.90;64.20;;;;;;5046602;28;20123;-65
2022/08/25 11:41:45;;;;;;;9.88;6.65;;;19.90;64.00;;;;;;5035914;28;20095;-64
2022/08/25 11:44:45;;;;;;;10.63;7.60;;;20.00;63.90;;;;;;5041597;28;20052;-64
2022/08/25 11:47:49;;;;;;;9.63;7.00;;;20.00;63.90;;;;;;5041520;28;20700;-65
2022/08/25 11:50:35;;;;;;;10.93;7.00;;;20.10;64.00;;;;;;5036665;28;20148;-64
2022/08/25 11:53:28;;;;;;;9.55;6.85;;;20.20;63.00;;;;;;5056257;28;20118;-64
2022/08/25 11:56:04;;;;;;;9.05;6.88;;;20.20;62.80;;;;;;5047639;28;20569;-65
2022/08/25 11:58:46;;;;;;;10.20;7.20;;;20.20;64.00;;;;;;5044065;28;20575;-64
2022/08/25 12:01:55;;;;;;;8.77;6.82;;;20.30;63.20;;;;;;5052476;28;20094;-64
2022/08/25 12:04:40;;;;;;;10.15;7.82;;;20.30;62.20;;;;;;5031768;28;20057;-63
2022/08/25 12:07:18;;;;;;;10.38;7.18;;;20.30;63.20;;;;;;5045466;28;20617;-63
2022/08/25 12:10:10;;;;;;;8.27;6.57;;;20.40;63.30;;;;;;5048423;28;20049;-63
2022/08/25 12:12:58;;;;;;;9.27;6.63;;;20.30;62.40;;;;;;5038839;28;20405;-62
2022/08/25 12:15:47;;;;;;;10.02;8.00;;;20.30;62.80;;;;;;5042581;28;20056;-60
2022/08/25 12:18:39;;;;;;;8.73;7.40;;;20.40;64.20;;;;;;5052227;28;20049;-63
2022/08/25 12:21:13;;;;;;;8.77;6.13;;;20.40;64.70;;;;;;5034513;28;20049;-64
2022/08/25 12:24:03;;;;;;;8.70;6.75;;;20.40;63.90;;;;;;5041022;28;20045;-61
2022/08/25 12:26:53;;;;;;;8.48;6.55;;;20.50;63.40;;;;;;5043546;28;20041;-62
2022/08/25 12:29:31;;;;;;;7.07;6.03;;;20.50;63.10;;;;;;5038844;28;20045;-61
2022/08/25 12:32:14;;;;;;;8.75;6.68;;;20.50;63.30;;;;;;5034646;28;20041;-62
2022/08/25 12:35:21;;;;;;;8.68;6.97;;;20.60;63.20;;;;;;5033138;28;20054;-61
2022/08/25 12:38:03;;;;;;;10.43;7.00;;;20.60;62.60;;;;;;5031628;28;20398;-61
2022/08/25 12:40:54;;;;;;;8.48;6.63;;;20.60;63.40;;;;;;5032037;28;20124;-61
2022/08/25 12:43:27;;;;;;;7.13;6.13;;;20.60;63.50;;;;;;5048878;28;20050;-62
2022/08/25 12:46:33;;;;;;;8.15;6.57;;;20.60;63.00;;;;;;5041091;28;20042;-61
2022/08/25 12:49:27;;;;;;;8.68;7.00;;;20.70;62.80;;;;;;5047123;28;20049;-62
2022/08/25 12:52:09;;;;;;;10.05;7.32;;;20.70;63.00;;;;;;5024195;28;20076;-60
2022/08/25 12:54:47;;;;;;;7.28;5.82;;;20.70;63.00;;;;;;5040528;28;20048;-59
2022/08/25 12:57:42;;;;;;;8.38;6.53;;;20.80;62.50;;;;;;5039102;28;20045;-59
2022/08/25 13:00:22;;;;;;;7.70;6.90;;;20.70;62.30;;;;;;5016757;28;20052;-61
2022/08/25 13:03:23;;;;;;;8.02;6.38;;;20.70;62.20;;;;;;5031141;28;20052;-61
2022/08/25 13:06:17;;;;;;;9.67;6.80;;;20.80;61.70;;;;;;5033046;28;20045;-61
2022/08/25 13:09:25;;;;;;;7.60;5.85;;;20.80;61.90;;;;;;5037838;28;20303;-61
2022/08/25 13:12:16;;;;;;;8.77;6.55;;;20.80;61.60;;;;;;5030413;28;20077;-61
2022/08/25 13:14:53;;;;;;;8.90;6.70;;;20.70;61.20;;;;;;5030741;28;20570;-61
2022/08/25 13:17:31;;;;;;;9.75;6.55;;;20.80;62.20;;;;;;5035400;28;20130;-62
2022/08/25 13:20:22;;;;;;;7.87;6.53;;;20.80;61.80;;;;;;5034709;28;20052;-62
2022/08/25 13:22:52;;;;;;;8.07;6.10;;;20.80;61.80;;;;;;5027387;28;20417;-63
2022/08/25 13:25:26;;;;;;;12.48;6.18;;;20.70;62.20;;;;;;5040797;28;20153;-65
2022/08/25 13:28:03;;;;;;;8.57;7.00;;;20.80;62.50;;;;;;5034447;28;20064;-62
2022/08/25 13:30:33;;;;;;;8.38;6.55;;;20.70;62.40;;;;;;5034490;28;20044;-62
2022/08/25 13:33:16;;;;;;;8.43;6.75;;;20.70;62.70;;;;;;5031232;28;20048;-64
2022/08/25 13:38:39;;;;;;;10.05;6.40;;;20.70;62.70;;;;;;5035846;28;20508;-61